Time;durP1;ratioP1;P1;durP2;ratioP2;P2;SDS_P1;SDS_P2;PMS_P1;PMS_P2;Temp;Humidity;BMP_temperature;BMP_pressure;BME280_temperature;BME280_humidity;BME280_pressure;Samples;Min_cycle;Max_cycle;Signal;HPM_P1;HPM_P2
2021/08/05 00:00:48;;;;;;;45.00;30.73;;;20.20;69.80;;;;;;5005661;28;20190;-90
2021/08/05 00:03:14;;;;;;;40.73;29.90;;;20.20;69.50;;;;;;5005174;28;20199;-90
2021/08/05 00:05:40;;;;;;;42.93;30.73;;;20.10;69.60;;;;;;5005313;28;20190;-90
2021/08/05 00:08:06;;;;;;;46.97;32.22;;;20.10;69.70;;;;;;5001280;28;20206;-90
2021/08/05 00:10:31;;;;;;;41.40;29.63;;;20.10;69.50;;;;;;5007127;28;20178;-90
2021/08/05 00:12:57;;;;;;;42.33;30.73;;;20.20;69.10;;;;;;4996651;28;20873;-90
2021/08/05 00:15:24;;;;;;;39.13;30.63;;;20.40;68.90;;;;;;4993632;28;20433;-91
2021/08/05 00:17:49;;;;;;;38.28;29.08;;;20.50;68.60;;;;;;4994432;28;20237;-90
2021/08/05 00:20:16;;;;;;;36.37;28.90;;;20.50;68.20;;;;;;4994891;28;20295;-91
2021/08/05 00:22:41;;;;;;;37.03;28.23;;;20.60;68.00;;;;;;4997787;28;20674;-91
2021/08/05 00:25:08;;;;;;;37.73;28.60;;;20.70;67.90;;;;;;5005762;28;20207;-90
2021/08/05 00:27:33;;;;;;;36.45;28.23;;;20.60;67.70;;;;;;5016834;28;20185;-90
2021/08/05 00:29:59;;;;;;;34.07;28.13;;;20.60;67.80;;;;;;5000034;28;20187;-90
2021/08/05 00:32:25;;;;;;;44.90;30.60;;;20.50;68.10;;;;;;5002218;28;20203;-90
2021/08/05 00:34:51;;;;;;;38.23;29.50;;;20.50;68.30;;;;;;5002354;28;20194;-90
2021/08/05 00:37:16;;;;;;;52.90;28.53;;;20.50;68.50;;;;;;5001755;28;20241;-91
2021/08/05 00:39:42;;;;;;;39.40;30.77;;;20.40;68.60;;;;;;5002102;28;20242;-91
2021/08/05 00:42:08;;;;;;;41.10;30.57;;;20.40;68.90;;;;;;5002437;28;20195;-90
2021/08/05 00:44:35;;;;;;;41.10;31.13;;;20.30;69.10;;;;;;5004308;28;20210;-90
2021/08/05 00:47:00;;;;;;;43.00;29.42;;;20.30;69.40;;;;;;5004219;28;20175;-90
2021/08/05 00:49:26;;;;;;;40.07;31.17;;;20.30;69.50;;;;;;5003944;28;20225;-90
2021/08/05 00:51:52;;;;;;;37.87;30.13;;;20.30;69.80;;;;;;5004001;28;20204;-91
2021/08/05 00:54:18;;;;;;;38.20;28.97;;;20.40;69.50;;;;;;5006369;28;20513;-90
2021/08/05 00:56:43;;;;;;;42.70;29.83;;;20.50;69.50;;;;;;5004957;28;20429;-90
2021/08/05 00:59:09;;;;;;;40.47;28.50;;;20.50;69.30;;;;;;5002348;28;20258;-90
2021/08/05 01:01:39;;;;;;;41.27;30.80;;;20.50;69.10;;;;;;5002304;28;20610;-90
2021/08/05 01:04:08;;;;;;;42.72;32.33;;;20.50;69.00;;;;;;5004469;28;20167;-90
2021/08/05 01:06:39;;;;;;;45.42;31.27;;;20.50;69.10;;;;;;5012575;28;20187;-90
2021/08/05 01:09:17;;;;;;;41.33;31.35;;;20.60;68.90;;;;;;5004166;28;20186;-91
2021/08/05 01:12:00;;;;;;;39.92;32.35;;;20.50;68.80;;;;;;4999440;28;20283;-90
2021/08/05 01:14:30;;;;;;;41.85;32.65;;;20.30;69.10;;;;;;4998999;28;20187;-90
2021/08/05 01:16:57;;;;;;;41.55;32.80;;;20.30;69.50;;;;;;4997108;28;20211;-90
2021/08/05 01:19:28;;;;;;;46.10;33.75;;;20.20;69.70;;;;;;4996466;28;20285;-91
2021/08/05 01:22:06;;;;;;;44.15;34.28;;;20.10;70.00;;;;;;4997053;28;20206;-91
2021/08/05 01:24:37;;;;;;;45.10;33.72;;;20.10;70.20;;;;;;4999334;28;20167;-90
2021/08/05 01:27:04;;;;;;;48.63;34.03;;;20.10;70.30;;;;;;5016624;28;20185;-90
2021/08/05 01:29:34;;;;;;;45.97;31.83;;;20.10;70.40;;;;;;5019222;28;20167;-90
2021/08/05 01:32:03;;;;;;;47.42;33.03;;;20.10;70.40;;;;;;5008421;28;20235;-90
2021/08/05 01:34:30;;;;;;;43.97;32.88;;;20.20;71.00;;;;;;4998126;28;20549;-90
2021/08/05 01:36:57;;;;;;;48.55;34.42;;;20.10;70.20;;;;;;5000121;28;20189;-91
2021/08/05 01:39:22;;;;;;;46.40;34.88;;;20.30;70.30;;;;;;4998484;28;20298;-90
2021/08/05 01:41:49;;;;;;;46.23;33.97;;;20.30;69.80;;;;;;4998560;28;20203;-91
2021/08/05 01:44:16;;;;;;;47.85;37.22;;;20.30;69.70;;;;;;4999277;28;20190;-90
2021/08/05 01:46:43;;;;;;;49.83;34.95;;;20.30;69.30;;;;;;4996433;28;20183;-90
2021/08/05 01:49:10;;;;;;;46.40;34.72;;;20.20;68.90;;;;;;4997081;28;20540;-90
2021/08/05 01:51:36;;;;;;;45.95;34.00;;;20.30;69.00;;;;;;4997368;28;20187;-90
2021/08/05 01:54:04;;;;;;;44.03;34.35;;;20.30;68.80;;;;;;4995050;28;20551;-90
2021/08/05 01:56:30;;;;;;;50.03;33.47;;;20.40;68.40;;;;;;4995273;28;20183;-90
2021/08/05 01:58:57;;;;;;;52.17;33.53;;;20.50;68.20;;;;;;4995961;28;20213;-90
2021/08/05 02:01:23;;;;;;;50.50;34.13;;;20.50;67.90;;;;;;5008431;28;20210;-89
2021/08/05 02:04:06;;;;;;;44.27;32.60;;;20.40;68.00;;;;;;4998747;28;20207;-91
2021/08/05 02:06:36;;;;;;;41.58;32.17;;;20.30;68.10;;;;;;4994758;28;20194;-91
2021/08/05 02:09:11;;;;;;;45.72;32.05;;;20.30;68.20;;;;;;4994469;28;20199;-91
2021/08/05 02:11:41;;;;;;;44.25;34.13;;;20.40;68.20;;;;;;5000007;28;20167;-91
2021/08/05 02:14:08;;;;;;;46.78;32.50;;;20.40;68.00;;;;;;4995351;28;20191;-91
2021/08/05 02:16:38;;;;;;;46.80;35.13;;;20.30;68.10;;;;;;4993939;28;20229;-91
2021/08/05 02:19:04;;;;;;;51.75;35.85;;;20.30;68.10;;;;;;4993858;28;20211;-91
2021/08/05 02:21:31;;;;;;;47.33;33.50;;;20.40;67.40;;;;;;4993708;28;20575;-91
2021/08/05 02:23:58;;;;;;;44.28;33.47;;;20.50;67.40;;;;;;4993979;28;20547;-91
2021/08/05 02:26:25;;;;;;;44.10;32.42;;;20.60;67.80;;;;;;4993722;28;20199;-91
2021/08/05 02:28:51;;;;;;;47.38;34.17;;;20.50;68.10;;;;;;4993773;28;20179;-91
2021/08/05 02:31:18;;;;;;;53.37;35.20;;;20.40;68.40;;;;;;4993207;28;20186;-91
2021/08/05 02:33:44;;;;;;;51.38;36.83;;;20.30;68.70;;;;;;4993952;28;20525;-91
2021/08/05 02:36:10;;;;;;;52.25;36.53;;;20.30;68.80;;;;;;5012700;28;20191;-91
2021/08/05 02:38:36;;;;;;;54.50;39.47;;;20.30;68.70;;;;;;4995106;28;20779;-91
2021/08/05 02:41:05;;;;;;;54.85;36.85;;;20.20;68.60;;;;;;4993808;28;20415;-91
2021/08/05 02:43:32;;;;;;;56.72;39.67;;;20.10;68.80;;;;;;4993461;28;20195;-91
2021/08/05 02:45:58;;;;;;;57.50;37.97;;;20.20;69.00;;;;;;4993304;28;20175;-91
2021/08/05 02:48:25;;;;;;;47.58;35.33;;;20.10;69.20;;;;;;4993349;28;20218;-91
2021/08/05 02:50:54;;;;;;;49.08;37.40;;;20.10;69.60;;;;;;4993146;28;20183;-91
2021/08/05 02:53:20;;;;;;;51.90;36.55;;;20.00;69.70;;;;;;4992869;28;20199;-91
2021/08/05 02:55:47;;;;;;;46.60;34.70;;;20.00;69.80;;;;;;4998000;28;20186;-91
2021/08/05 02:58:13;;;;;;;55.85;37.83;;;19.90;69.80;;;;;;5004071;28;20568;-91
2021/08/05 03:00:39;;;;;;;49.67;35.92;;;19.90;69.80;;;;;;4993073;28;20682;-91
2021/08/05 03:03:05;;;;;;;53.80;38.57;;;19.90;69.90;;;;;;4992628;28;20198;-91
2021/08/05 03:05:31;;;;;;;54.08;37.40;;;19.90;69.80;;;;;;4993115;28;20318;-91
2021/08/05 03:07:57;;;;;;;51.03;37.67;;;20.00;69.70;;;;;;4993410;28;20544;-91
2021/08/05 03:10:23;;;;;;;51.07;37.17;;;19.90;69.50;;;;;;4993060;28;20182;-91
2021/08/05 03:12:48;;;;;;;53.17;35.10;;;19.90;70.30;;;;;;4992621;28;20255;-91
2021/08/05 03:15:14;;;;;;;56.67;37.77;;;19.90;69.60;;;;;;4993576;28;20189;-91
2021/08/05 03:17:40;;;;;;;51.30;35.40;;;20.00;69.40;;;;;;4992969;28;20178;-91
2021/08/05 03:20:07;;;;;;;47.50;34.63;;;20.00;69.20;;;;;;4995799;28;20203;-91
2021/08/05 03:22:32;;;;;;;42.83;33.10;;;20.10;69.10;;;;;;4992443;28;20868;-91
2021/08/05 03:24:58;;;;;;;50.80;34.67;;;20.10;68.90;;;;;;4992694;28;20219;-91
2021/08/05 03:27:33;;;;;;;44.97;32.20;;;20.10;68.70;;;;;;4994244;28;20179;-91
2021/08/05 03:29:59;;;;;;;44.25;31.20;;;20.10;68.70;;;;;;4992606;28;20422;-91
2021/08/05 03:32:25;;;;;;;39.43;28.60;;;20.10;68.80;;;;;;4992247;28;20207;-91
2021/08/05 03:34:51;;;;;;;37.67;28.95;;;20.00;68.90;;;;;;4992574;28;20430;-91
2021/08/05 03:37:17;;;;;;;38.13;28.47;;;20.00;68.90;;;;;;4992562;28;20286;-91
2021/08/05 03:39:42;;;;;;;41.57;30.17;;;20.00;69.00;;;;;;5004933;28;20209;-90
2021/08/05 03:42:08;;;;;;;40.23;28.57;;;20.10;68.90;;;;;;4997001;28;20207;-91
2021/08/05 03:44:34;;;;;;;42.27;30.77;;;20.00;68.80;;;;;;4992367;28;20215;-91
2021/08/05 03:47:00;;;;;;;40.17;30.40;;;20.10;68.80;;;;;;4992481;28;20225;-91
2021/08/05 03:49:25;;;;;;;42.40;29.80;;;20.10;68.70;;;;;;4992567;28;20187;-91
2021/08/05 03:51:51;;;;;;;38.90;29.47;;;20.30;68.30;;;;;;5000046;28;20203;-91
2021/08/05 03:54:17;;;;;;;40.80;31.10;;;20.20;68.00;;;;;;4996225;28;20666;-91
2021/08/05 03:56:42;;;;;;;41.67;29.83;;;20.30;68.20;;;;;;4992594;28;20603;-91
2021/08/05 03:59:08;;;;;;;35.07;27.67;;;20.20;68.10;;;;;;4993143;28;20584;-91
2021/08/05 04:01:34;;;;;;;41.20;31.13;;;20.10;68.10;;;;;;4992146;28;20215;-92
2021/08/05 04:03:59;;;;;;;36.67;30.23;;;20.10;68.30;;;;;;4996173;28;20497;-91
2021/08/05 04:06:25;;;;;;;38.70;29.03;;;20.10;68.30;;;;;;4992245;28;20179;-91
2021/08/05 04:08:51;;;;;;;38.77;31.17;;;20.10;68.40;;;;;;4993570;28;20251;-91
2021/08/05 04:11:16;;;;;;;38.50;30.00;;;20.10;68.50;;;;;;4992324;28;20269;-91
2021/08/05 04:13:42;;;;;;;36.00;28.70;;;20.20;68.40;;;;;;4992295;28;20218;-91
2021/08/05 04:16:08;;;;;;;33.90;28.33;;;20.20;68.20;;;;;;4992880;28;20191;-91
2021/08/05 04:18:34;;;;;;;39.03;28.50;;;20.20;68.10;;;;;;4991910;28;20555;-91
2021/08/05 04:21:00;;;;;;;33.63;27.87;;;20.30;68.00;;;;;;4995181;28;20194;-91
2021/08/05 04:23:26;;;;;;;33.73;26.83;;;20.50;67.50;;;;;;4992125;28;20254;-91
2021/08/05 04:25:51;;;;;;;34.93;28.10;;;20.30;67.40;;;;;;4992146;28;20179;-91
2021/08/05 04:28:18;;;;;;;36.07;28.70;;;20.20;67.70;;;;;;4992591;28;20418;-91
2021/08/05 04:30:44;;;;;;;31.65;26.35;;;20.30;67.80;;;;;;4991927;28;20178;-91
2021/08/05 04:33:10;;;;;;;35.93;29.00;;;20.30;67.70;;;;;;4975274;28;20215;-91
2021/08/05 04:35:35;;;;;;;35.97;27.93;;;20.30;67.80;;;;;;4992346;28;20632;-91
2021/08/05 04:38:01;;;;;;;36.20;28.60;;;20.40;67.70;;;;;;4992084;28;20183;-91
2021/08/05 04:40:29;;;;;;;36.03;27.90;;;20.40;67.50;;;;;;4992321;28;20318;-91
2021/08/05 04:42:55;;;;;;;38.65;28.45;;;20.30;67.80;;;;;;4993877;28;20638;-91
2021/08/05 04:45:23;;;;;;;37.03;27.60;;;20.30;68.00;;;;;;5009758;28;20183;-91
2021/08/05 04:48:00;;;;;;;38.42;27.90;;;20.40;68.00;;;;;;5006049;28;20263;-90
2021/08/05 04:50:31;;;;;;;34.40;27.85;;;20.40;67.90;;;;;;4992072;28;20179;-91
2021/08/05 04:52:59;;;;;;;35.25;28.65;;;20.40;68.00;;;;;;4993743;28;20522;-91
2021/08/05 04:55:29;;;;;;;32.35;26.02;;;20.40;68.10;;;;;;4995672;28;20617;-91
2021/08/05 04:58:03;;;;;;;35.40;28.92;;;20.40;68.30;;;;;;5000003;28;20213;-91
2021/08/05 05:00:34;;;;;;;35.63;28.55;;;20.30;68.40;;;;;;5014056;28;20207;-91
2021/08/05 05:03:00;;;;;;;36.85;29.30;;;20.40;68.20;;;;;;4996266;28;20595;-91
2021/08/05 05:05:28;;;;;;;39.70;28.60;;;20.30;68.20;;;;;;4992439;28;20175;-91
2021/08/05 05:07:54;;;;;;;36.78;28.85;;;20.40;68.30;;;;;;4996183;28;20179;-91
2021/08/05 05:10:22;;;;;;;37.47;29.00;;;20.50;68.50;;;;;;4995218;28;20178;-90
2021/08/05 05:12:48;;;;;;;41.92;27.67;;;20.50;68.40;;;;;;4996154;28;20214;-91
2021/08/05 05:15:15;;;;;;;34.40;28.80;;;20.40;68.50;;;;;;4996208;28;20189;-91
2021/08/05 05:17:42;;;;;;;44.65;29.23;;;20.30;68.80;;;;;;4995820;28;20234;-91
2021/08/05 05:20:09;;;;;;;36.00;28.90;;;20.40;69.00;;;;;;4996562;28;20294;-91
2021/08/05 05:22:36;;;;;;;37.58;28.42;;;20.40;68.80;;;;;;4995197;28;20214;-91
2021/08/05 05:25:03;;;;;;;35.45;27.35;;;20.40;68.60;;;;;;4995078;28;20260;-91
2021/08/05 05:27:29;;;;;;;35.63;26.23;;;20.40;68.50;;;;;;4994803;28;20702;-91
2021/08/05 05:29:56;;;;;;;37.43;28.17;;;20.50;68.30;;;;;;4994754;28;20282;-91
2021/08/05 05:32:26;;;;;;;36.33;27.75;;;20.50;67.80;;;;;;4995059;28;20203;-91
2021/08/05 05:34:52;;;;;;;31.73;26.50;;;20.70;67.70;;;;;;4994483;28;20190;-91
2021/08/05 05:37:18;;;;;;;36.35;29.33;;;20.70;67.70;;;;;;4994923;28;20171;-92
2021/08/05 05:39:44;;;;;;;37.60;28.77;;;20.80;67.50;;;;;;4994940;28;20523;-91
2021/08/05 05:42:10;;;;;;;37.13;28.63;;;20.70;67.40;;;;;;4994489;28;20210;-91
2021/08/05 05:44:36;;;;;;;37.17;29.20;;;20.60;67.70;;;;;;5008168;28;20195;-91
2021/08/05 05:47:02;;;;;;;40.70;31.27;;;20.70;68.00;;;;;;4995055;28;20218;-91
2021/08/05 05:49:27;;;;;;;37.53;30.20;;;20.70;68.20;;;;;;5009043;28;20213;-91
2021/08/05 05:51:53;;;;;;;42.50;29.63;;;20.70;68.50;;;;;;4998661;28;20446;-91
2021/08/05 05:54:19;;;;;;;40.40;28.47;;;20.70;69.20;;;;;;4994502;28;20194;-91
2021/08/05 05:56:45;;;;;;;51.10;33.77;;;20.60;69.50;;;;;;4994889;28;20229;-91
2021/08/05 05:59:10;;;;;;;45.53;34.33;;;20.40;70.30;;;;;;4994413;28;20203;-91
2021/08/05 06:01:36;;;;;;;45.53;32.77;;;20.40;71.20;;;;;;4993750;28;20183;-91
2021/08/05 06:04:02;;;;;;;47.60;36.90;;;20.40;71.40;;;;;;4996181;28;20238;-91
2021/08/05 06:06:27;;;;;;;43.60;34.23;;;20.40;71.60;;;;;;4995110;28;20530;-91
2021/08/05 06:08:53;;;;;;;48.50;35.03;;;20.20;71.80;;;;;;4995286;28;20214;-91
2021/08/05 06:11:19;;;;;;;51.80;35.87;;;20.30;72.10;;;;;;4993833;28;20642;-91
2021/08/05 06:13:44;;;;;;;53.67;38.37;;;20.30;72.20;;;;;;4993742;28;20746;-91
2021/08/05 06:16:10;;;;;;;46.40;33.50;;;20.30;72.30;;;;;;4994751;28;20183;-91
2021/08/05 06:18:36;;;;;;;51.97;36.93;;;20.30;72.40;;;;;;4992952;28;20305;-91
2021/08/05 06:21:01;;;;;;;50.33;38.63;;;20.30;72.60;;;;;;4994235;28;20619;-92
2021/08/05 06:23:27;;;;;;;52.87;39.00;;;20.40;72.20;;;;;;4994267;28;20841;-91
2021/08/05 06:25:53;;;;;;;53.87;38.87;;;20.40;72.20;;;;;;4994351;28;20205;-91
2021/08/05 06:28:19;;;;;;;50.03;36.50;;;20.40;72.20;;;;;;4995301;28;20542;-91
2021/08/05 06:30:45;;;;;;;51.00;36.97;;;20.40;72.20;;;;;;4993752;28;20183;-91
2021/08/05 06:33:11;;;;;;;48.03;36.33;;;20.50;72.30;;;;;;4993455;28;20438;-91
2021/08/05 06:35:37;;;;;;;52.20;36.73;;;20.50;72.00;;;;;;4995862;28;20252;-91
2021/08/05 06:38:03;;;;;;;48.93;36.70;;;20.60;72.00;;;;;;4998706;28;20175;-91
2021/08/05 06:40:28;;;;;;;47.57;35.07;;;20.80;71.80;;;;;;5006896;28;20227;-91
2021/08/05 06:42:54;;;;;;;48.30;35.90;;;20.80;71.60;;;;;;4993336;28;20207;-91
2021/08/05 06:45:21;;;;;;;47.00;35.50;;;20.70;71.40;;;;;;4994179;28;20642;-91
2021/08/05 06:47:47;;;;;;;49.20;33.87;;;20.90;70.70;;;;;;4995130;28;20183;-91
2021/08/05 06:50:14;;;;;;;48.87;35.77;;;21.10;69.90;;;;;;4993650;28;20414;-92
2021/08/05 06:52:39;;;;;;;45.73;35.33;;;21.30;68.00;;;;;;4993532;28;20195;-91
2021/08/05 06:55:06;;;;;;;50.77;33.60;;;21.30;67.40;;;;;;5008103;28;20449;-91
2021/08/05 06:57:32;;;;;;;39.13;32.73;;;21.70;67.30;;;;;;4993960;28;20274;-91
2021/08/05 06:59:58;;;;;;;37.47;27.60;;;22.00;66.40;;;;;;4994683;28;20560;-91
2021/08/05 07:02:24;;;;;;;38.33;29.03;;;22.20;64.50;;;;;;4992985;28;20489;-91
2021/08/05 07:04:50;;;;;;;36.77;29.30;;;22.60;62.50;;;;;;4993647;28;20469;-91
2021/08/05 07:07:16;;;;;;;40.30;28.30;;;22.90;61.50;;;;;;4993079;28;20414;-92
2021/08/05 07:09:42;;;;;;;38.57;28.63;;;23.30;59.20;;;;;;4993282;28;20580;-91
2021/08/05 07:12:08;;;;;;;35.70;26.80;;;23.60;57.50;;;;;;4992828;28;20289;-91
2021/08/05 07:14:33;;;;;;;30.30;25.47;;;23.80;56.30;;;;;;4992615;28;20199;-91
2021/08/05 07:16:59;;;;;;;36.60;26.83;;;23.70;55.50;;;;;;4992698;28;20839;-92
2021/08/05 07:19:25;;;;;;;34.80;26.97;;;23.60;55.90;;;;;;4992767;28;20293;-91
2021/08/05 07:21:52;;;;;;;30.10;25.60;;;23.50;56.40;;;;;;4992419;28;20203;-91
2021/08/05 07:24:17;;;;;;;32.67;27.10;;;23.80;56.30;;;;;;4994874;28;20490;-91
2021/08/05 07:26:44;;;;;;;34.10;25.10;;;24.20;55.60;;;;;;4993062;28;20977;-91
2021/08/05 07:29:09;;;;;;;31.40;25.10;;;24.10;54.90;;;;;;4992750;28;20430;-91
2021/08/05 07:31:36;;;;;;;23.63;19.37;;;24.40;53.50;;;;;;4992245;28;20442;-91
2021/08/05 07:34:02;;;;;;;24.10;20.30;;;24.50;52.90;;;;;;4993244;28;20433;-92
2021/08/05 07:36:28;;;;;;;24.03;20.27;;;24.60;52.40;;;;;;4993522;28;20426;-91
2021/08/05 07:38:54;;;;;;;19.87;16.70;;;24.80;51.20;;;;;;4992350;28;20961;-91
2021/08/05 07:41:20;;;;;;;20.03;17.90;;;24.90;50.40;;;;;;4992345;28;20183;-91
2021/08/05 07:43:46;;;;;;;22.70;18.20;;;25.20;49.60;;;;;;4994198;28;20195;-91
2021/08/05 07:46:12;;;;;;;21.80;17.50;;;25.40;48.80;;;;;;4992281;28;20236;-91
2021/08/05 07:48:38;;;;;;;23.57;19.40;;;25.70;48.00;;;;;;4992476;28;20492;-91
2021/08/05 07:51:04;;;;;;;21.30;18.43;;;25.90;47.20;;;;;;4992470;28;20994;-91
2021/08/05 07:53:30;;;;;;;22.57;20.17;;;26.00;47.60;;;;;;4992041;28;20575;-91
2021/08/05 07:55:56;;;;;;;21.50;19.20;;;26.20;45.70;;;;;;4993160;28;20515;-91
2021/08/05 07:58:22;;;;;;;21.63;19.30;;;26.00;45.70;;;;;;4994647;28;20202;-91
2021/08/05 08:00:47;;;;;;;23.57;20.37;;;25.50;45.70;;;;;;4993503;28;20175;-91
2021/08/05 08:03:15;;;;;;;19.87;17.37;;;25.10;46.90;;;;;;4993194;28;20433;-91
2021/08/05 08:05:41;;;;;;;18.17;16.27;;;25.10;46.20;;;;;;4992930;28;20477;-91
2021/08/05 08:08:07;;;;;;;19.77;17.20;;;25.00;46.90;;;;;;4994503;28;20411;-91
2021/08/05 08:10:34;;;;;;;19.60;17.50;;;25.00;46.70;;;;;;4994111;28;20246;-91
2021/08/05 08:13:00;;;;;;;19.40;16.93;;;24.80;47.60;;;;;;4994151;28;20457;-91
2021/08/05 08:15:26;;;;;;;18.90;16.60;;;24.70;48.10;;;;;;4994483;28;20418;-91
2021/08/05 08:17:53;;;;;;;21.17;17.83;;;24.60;47.90;;;;;;4996027;28;20207;-91
2021/08/05 08:20:20;;;;;;;18.03;16.10;;;24.50;48.60;;;;;;4996135;28;20462;-91
2021/08/05 08:22:46;;;;;;;19.43;15.33;;;24.50;49.40;;;;;;4996846;28;20484;-91
2021/08/05 08:25:12;;;;;;;18.23;16.17;;;24.40;49.20;;;;;;4992858;28;20418;-91
2021/08/05 08:27:40;;;;;;;15.93;14.30;;;24.30;49.20;;;;;;4997320;28;20418;-91
2021/08/05 08:30:07;;;;;;;17.80;15.70;;;24.20;49.30;;;;;;4999552;28;20183;-91
2021/08/05 08:32:32;;;;;;;19.70;15.70;;;24.20;49.90;;;;;;4994657;28;20472;-90
2021/08/05 08:34:59;;;;;;;42.57;18.40;;;24.20;50.30;;;;;;4993999;28;20438;-91
2021/08/05 08:37:25;;;;;;;21.07;18.13;;;24.10;51.10;;;;;;4993459;28;20183;-91
2021/08/05 08:39:51;;;;;;;20.33;13.60;;;24.00;51.30;;;;;;4994866;28;20513;-91
2021/08/05 08:42:17;;;;;;;17.43;13.30;;;24.00;50.90;;;;;;4993330;28;20449;-91
2021/08/05 08:44:44;;;;;;;13.37;11.97;;;24.00;49.40;;;;;;4995887;28;20430;-91
2021/08/05 08:47:12;;;;;;;17.43;12.13;;;24.10;48.50;;;;;;4995746;28;20445;-91
2021/08/05 08:49:43;;;;;;;10.73;9.73;;;24.20;48.50;;;;;;4995571;28;20426;-91
2021/08/05 08:52:11;;;;;;;16.47;12.30;;;24.20;46.60;;;;;;4995071;28;20449;-90
2021/08/05 08:54:43;;;;;;;14.13;10.57;;;24.20;46.80;;;;;;4995579;28;20418;-91
2021/08/05 08:57:13;;;;;;;12.83;10.80;;;24.20;47.20;;;;;;4980010;28;20415;-90
2021/08/05 08:59:40;;;;;;;21.43;12.17;;;24.40;47.60;;;;;;4995135;28;20608;-91
2021/08/05 09:02:06;;;;;;;14.40;11.17;;;24.40;47.80;;;;;;4995949;28;20437;-91
2021/08/05 09:04:34;;;;;;;27.50;13.70;;;24.60;48.00;;;;;;4995386;28;20422;-91
2021/08/05 09:07:00;;;;;;;15.67;13.17;;;24.70;48.00;;;;;;4995255;28;20187;-91
2021/08/05 09:09:27;;;;;;;19.30;12.63;;;24.90;47.60;;;;;;4995455;28;20411;-91
2021/08/05 09:11:53;;;;;;;18.93;15.17;;;24.90;48.30;;;;;;4994569;28;20666;-90
2021/08/05 09:14:52;;;;;;;16.70;14.13;;;24.70;48.40;;;;;;4994681;28;20496;-91
2021/08/05 09:17:30;;;;;;;17.17;14.20;;;24.80;48.20;;;;;;4973771;28;20245;-91
2021/08/05 09:19:59;;;;;;;18.10;12.20;;;25.00;47.90;;;;;;4995145;28;20504;-91
2021/08/05 09:22:40;;;;;;;12.40;11.20;;;25.00;47.00;;;;;;4994281;28;21007;-91
2021/08/05 09:25:18;;;;;;;13.13;11.80;;;25.20;46.30;;;;;;4995020;28;20453;-91
2021/08/05 09:27:45;;;;;;;14.20;11.53;;;25.20;45.90;;;;;;4994824;28;20422;-91
2021/08/05 09:30:12;;;;;;;16.77;12.07;;;25.10;46.70;;;;;;4996130;28;20415;-91
2021/08/05 09:32:38;;;;;;;12.90;11.30;;;25.10;46.70;;;;;;4995669;28;20453;-91
2021/08/05 09:35:09;;;;;;;15.50;13.47;;;25.30;45.40;;;;;;4996339;28;20536;-91
2021/08/05 09:37:36;;;;;;;16.10;14.40;;;25.20;45.50;;;;;;4996042;28;20465;-91
2021/08/05 09:40:30;;;;;;;16.90;14.70;;;25.10;45.60;;;;;;4996965;28;20454;-91
2021/08/05 09:42:56;;;;;;;16.90;15.10;;;25.10;46.30;;;;;;4993854;28;20473;-91
2021/08/05 09:45:36;;;;;;;21.50;14.23;;;25.10;46.40;;;;;;4994442;28;20411;-91
2021/08/05 09:48:02;;;;;;;19.17;14.63;;;25.20;46.40;;;;;;4994365;28;20945;-91
2021/08/05 09:50:28;;;;;;;15.13;13.53;;;25.10;46.50;;;;;;4994713;28;20472;-91
2021/08/05 09:53:11;;;;;;;21.47;14.90;;;25.10;46.40;;;;;;4994316;28;20761;-91
2021/08/05 09:55:37;;;;;;;14.90;13.40;;;25.30;46.60;;;;;;4994615;28;20623;-91
2021/08/05 09:58:05;;;;;;;13.33;12.03;;;25.40;45.40;;;;;;4995029;28;20540;-91
2021/08/05 10:00:43;;;;;;;13.73;11.93;;;25.20;44.60;;;;;;4993819;28;20475;-91
2021/08/05 10:03:09;;;;;;;12.13;10.97;;;25.20;45.20;;;;;;4993382;28;20438;-91
2021/08/05 10:05:58;;;;;;;14.67;10.17;;;25.30;44.90;;;;;;4994176;28;20996;-91
2021/08/05 10:08:37;;;;;;;14.43;12.97;;;25.60;44.00;;;;;;4993753;28;20489;-91
2021/08/05 10:11:04;;;;;;;15.27;13.67;;;25.90;43.80;;;;;;4994473;28;20426;-91
2021/08/05 10:13:35;;;;;;;17.40;11.97;;;25.90;43.40;;;;;;4993116;28;20455;-91
2021/08/05 10:16:06;;;;;;;17.83;15.20;;;26.10;44.50;;;;;;4993817;28;20426;-91
2021/08/05 10:18:37;;;;;;;15.73;13.50;;;26.10;44.60;;;;;;4994164;28;20398;-91
2021/08/05 10:21:45;;;;;;;18.07;13.97;;;25.90;44.30;;;;;;4994010;28;20505;-91
2021/08/05 10:24:12;;;;;;;12.87;11.47;;;25.10;45.90;;;;;;5011164;28;20423;-91
2021/08/05 10:26:41;;;;;;;14.30;12.80;;;25.30;46.30;;;;;;4995390;28;20434;-91
2021/08/05 10:29:07;;;;;;;12.83;10.23;;;25.50;45.40;;;;;;4996279;28;20431;-91
2021/08/05 10:31:36;;;;;;;12.70;10.07;;;25.40;45.60;;;;;;4996840;28;20426;-91
2021/08/05 10:34:02;;;;;;;16.27;14.57;;;25.50;45.20;;;;;;4993749;28;20425;-91
2021/08/05 10:37:11;;;;;;;21.70;13.20;;;25.10;45.70;;;;;;4994419;28;20529;-91
2021/08/05 10:39:48;;;;;;;17.33;15.03;;;25.10;46.50;;;;;;4974241;28;20493;-91
2021/08/05 10:42:19;;;;;;;19.30;14.50;;;25.40;46.90;;;;;;5055758;23;20480;-91
2021/08/05 10:44:51;;;;;;;15.50;12.93;;;25.60;46.60;;;;;;5013361;28;20509;-91
2021/08/05 10:47:28;;;;;;;16.13;14.53;;;25.80;46.50;;;;;;5013211;28;20442;-91
2021/08/05 10:50:00;;;;;;;20.27;16.80;;;26.10;46.70;;;;;;5013541;28;20426;-91
2021/08/05 10:52:38;;;;;;;17.50;15.70;;;25.90;45.40;;;;;;5012596;28;20457;-91
2021/08/05 10:55:15;;;;;;;14.83;11.93;;;26.00;45.80;;;;;;5013290;28;20425;-91
2021/08/05 10:57:43;;;;;;;16.90;14.13;;;26.30;46.20;;;;;;5012949;28;20432;-91
2021/08/05 11:00:14;;;;;;;18.13;15.60;;;26.40;45.20;;;;;;5013162;28;20549;-91
2021/08/05 11:02:52;;;;;;;16.20;13.50;;;26.50;45.20;;;;;;5012635;28;20875;-90
2021/08/05 11:05:25;;;;;;;15.83;14.13;;;26.60;45.20;;;;;;5011989;28;20434;-91
2021/08/05 11:07:53;;;;;;;14.60;13.10;;;26.80;45.00;;;;;;5013017;28;20430;-91
2021/08/05 11:10:23;;;;;;;15.50;13.73;;;26.90;43.80;;;;;;5012812;28;20425;-91
2021/08/05 11:13:15;;;;;;;15.77;14.17;;;26.90;43.30;;;;;;5011963;28;20444;-91
2021/08/05 11:15:41;;;;;;;16.10;14.00;;;26.80;43.50;;;;;;5012443;28;20449;-91
2021/08/05 11:18:16;;;;;;;14.90;13.33;;;27.00;44.60;;;;;;5012280;28;20442;-91
2021/08/05 11:20:43;;;;;;;18.60;15.83;;;27.20;44.10;;;;;;5012122;28;20216;-91
2021/08/05 11:23:36;;;;;;;14.20;12.80;;;26.90;43.30;;;;;;5011723;28;20510;-91
2021/08/05 11:26:08;;;;;;;12.93;11.63;;;26.50;43.60;;;;;;5012334;28;20464;-91
2021/08/05 11:28:45;;;;;;;15.93;13.40;;;26.60;44.00;;;;;;5012375;28;20764;-91
2021/08/05 11:31:26;;;;;;;12.83;11.73;;;26.50;43.80;;;;;;5012568;28;20447;-92
2021/08/05 11:34:09;;;;;;;15.10;12.07;;;26.30;43.80;;;;;;5012342;28;20445;-91
2021/08/05 11:36:43;;;;;;;14.73;13.23;;;26.10;44.40;;;;;;5011967;28;20470;-91
2021/08/05 11:39:13;;;;;;;16.47;12.37;;;26.10;45.40;;;;;;5012626;28;20482;-91
2021/08/05 11:42:13;;;;;;;13.43;10.53;;;26.30;45.10;;;;;;5011680;28;20438;-91
2021/08/05 11:44:44;;;;;;;21.00;15.20;;;26.20;44.70;;;;;;4998282;28;21046;-91
2021/08/05 11:47:16;;;;;;;19.73;14.20;;;26.30;45.40;;;;;;5012081;28;20482;-91
2021/08/05 11:49:59;;;;;;;19.00;14.20;;;26.40;45.70;;;;;;5012057;28;20426;-91
2021/08/05 11:52:28;;;;;;;23.93;13.30;;;26.60;45.20;;;;;;5021319;28;20470;-90
2021/08/05 11:55:17;;;;;;;25.07;14.17;;;26.80;44.20;;;;;;5025787;28;20424;-91
2021/08/05 12:00:41;;;;;;;17.83;13.67;;;26.30;44.20;;;;;;5009672;28;20473;-91
2021/08/05 12:03:12;;;;;;;13.80;12.03;;;25.90;45.50;;;;;;5011087;28;20478;-91
2021/08/05 12:05:48;;;;;;;11.77;10.67;;;25.90;46.00;;;;;;5011766;28;20620;-91
2021/08/05 12:08:19;;;;;;;12.73;9.57;;;25.90;46.00;;;;;;5011611;28;20453;-91
2021/08/05 12:10:45;;;;;;;12.83;9.40;;;26.10;45.80;;;;;;5012004;28;20417;-91
2021/08/05 12:13:17;;;;;;;9.00;8.10;;;26.20;45.10;;;;;;5010962;28;20448;-91
2021/08/05 12:15:55;;;;;;;9.83;8.13;;;26.30;44.10;;;;;;5011582;28;20425;-91
2021/08/05 12:18:23;;;;;;;8.97;8.07;;;26.40;43.80;;;;;;5015508;28;20504;-91
2021/08/05 12:20:53;;;;;;;7.23;6.63;;;26.40;43.30;;;;;;5015828;28;20430;-91
2021/08/05 12:23:30;;;;;;;8.60;7.50;;;26.60;43.00;;;;;;5015949;28;20453;-91
2021/08/05 12:26:06;;;;;;;7.80;6.13;;;26.70;42.50;;;;;;5015837;28;20549;-91
2021/08/05 12:28:35;;;;;;;11.67;6.77;;;26.50;43.30;;;;;;5015925;28;20422;-91
2021/08/05 12:31:04;;;;;;;7.17;6.10;;;26.70;42.10;;;;;;5016048;28;20408;-91
2021/08/05 12:33:42;;;;;;;5.77;5.23;;;26.70;41.20;;;;;;5015401;28;20444;-91
2021/08/05 12:36:12;;;;;;;7.07;6.20;;;27.20;41.50;;;;;;5015922;28;20873;-91
2021/08/05 12:39:05;;;;;;;9.60;5.90;;;27.40;39.70;;;;;;5015208;28;20445;-91